createdAt,value
2019-05-20T00:00:01.110Z,16.32
2019-05-20T00:02:28.637Z,16.42
2019-05-20T00:04:57.232Z,16.39
2019-05-20T00:07:23.978Z,16.31
2019-05-20T00:09:51.063Z,16.31
2019-05-20T00:12:17.834Z,16.26
2019-05-20T00:14:44.620Z,16.31
2019-05-20T00:17:11.340Z,16.34
2019-05-20T00:19:38.108Z,16.44
2019-05-20T00:22:04.802Z,16.53
2019-05-20T00:24:31.805Z,16.38
2019-05-20T00:26:58.604Z,16.39
2019-05-20T00:29:25.668Z,16.33
2019-05-20T00:31:53.436Z,16.34
2019-05-20T00:34:34.692Z,16.38
2019-05-20T00:36:52.148Z,16.32
2019-05-20T00:39:20.597Z,16.24
2019-05-20T00:41:47.554Z,16.30
2019-05-20T00:44:14.318Z,16.39
2019-05-20T00:46:41.144Z,16.41
2019-05-20T00:49:10.568Z,16.48
2019-05-20T00:51:37.394Z,16.43
2019-05-20T00:54:06.051Z,16.42
2019-05-20T00:56:32.814Z,16.32
2019-05-20T00:58:59.692Z,16.31
2019-05-20T01:01:26.449Z,16.39
2019-05-20T01:03:53.230Z,16.34
2019-05-20T01:06:19.981Z,16.32
2019-05-20T01:08:46.731Z,16.31
2019-05-20T01:11:13.560Z,16.31
2019-05-20T01:13:40.329Z,16.25
2019-05-20T01:16:07.080Z,16.21
2019-05-20T01:18:33.919Z,16.10
2019-05-20T01:21:00.759Z,16.05
2019-05-20T01:23:27.605Z,16.00
2019-05-20T01:25:54.544Z,15.97
2019-05-20T01:28:21.676Z,15.92
2019-05-20T01:30:48.478Z,15.85
2019-05-20T01:33:18.135Z,15.80
2019-05-20T01:35:44.896Z,15.79
2019-05-20T01:38:12.122Z,15.86
2019-05-20T01:40:38.884Z,15.80
2019-05-20T01:43:05.626Z,15.55
2019-05-20T01:45:32.458Z,15.38
2019-05-20T01:48:00.109Z,15.41
2019-05-20T01:50:26.984Z,15.45
2019-05-20T01:52:53.829Z,15.45
2019-05-20T01:55:20.586Z,15.52
2019-05-20T01:57:47.451Z,15.60
2019-05-20T02:00:14.204Z,15.73
2019-05-20T02:02:41.034Z,15.72
2019-05-20T02:05:08.387Z,15.74
2019-05-20T02:07:35.140Z,15.67
2019-05-20T02:10:01.944Z,15.61
2019-05-20T02:12:28.684Z,15.55
2019-05-20T02:15:01.543Z,15.57
2019-05-20T02:17:29.065Z,15.58
2019-05-20T02:19:55.796Z,15.58
2019-05-20T02:22:23.087Z,15.61
2019-05-20T02:24:50.448Z,15.57
2019-05-20T02:27:17.483Z,15.53
2019-05-20T02:29:44.433Z,15.51
2019-05-20T02:32:11.273Z,15.47
2019-05-20T02:34:38.408Z,15.47
2019-05-20T02:37:05.228Z,15.18
2019-05-20T02:39:31.942Z,15.16
2019-05-20T02:41:58.757Z,15.15
2019-05-20T02:44:25.494Z,14.93
2019-05-20T02:46:52.416Z,14.83
2019-05-20T02:49:19.275Z,14.70
2019-05-20T02:51:46.013Z,14.53
2019-05-20T02:54:12.765Z,14.58
2019-05-20T02:56:39.631Z,14.51
2019-05-20T02:59:06.395Z,14.43
2019-05-20T03:01:33.084Z,14.34
2019-05-20T03:04:10.955Z,14.30
2019-05-20T03:06:28.844Z,14.26
2019-05-20T03:08:55.564Z,14.20
2019-05-20T03:11:22.328Z,14.20
2019-05-20T03:13:50.311Z,14.09
2019-05-20T03:16:17.011Z,14.09
2019-05-20T03:18:44.171Z,14.16
2019-05-20T03:21:10.911Z,14.17
2019-05-20T03:23:37.653Z,14.21
2019-05-20T03:26:04.549Z,14.33
2019-05-20T03:28:31.645Z,14.51
2019-05-20T03:30:58.517Z,14.66
2019-05-20T03:33:25.382Z,14.48
2019-05-20T03:35:52.274Z,14.26
2019-05-20T03:38:18.994Z,14.15
2019-05-20T03:40:45.747Z,14.10
2019-05-20T03:43:12.915Z,14.02
2019-05-20T03:45:39.685Z,14.08
2019-05-20T03:48:06.833Z,14.31
2019-05-20T03:50:33.529Z,14.35
2019-05-20T03:53:00.310Z,14.30
2019-05-20T03:55:27.062Z,14.35
2019-05-20T03:57:53.785Z,14.39
2019-05-20T04:00:37.818Z,14.40
2019-05-20T04:03:04.540Z,14.44
2019-05-20T04:05:31.265Z,14.51
2019-05-20T04:07:58.067Z,14.42
2019-05-20T04:10:24.803Z,14.30
2019-05-20T04:12:51.519Z,14.29
2019-05-20T04:15:18.293Z,14.18
2019-05-20T04:17:45.388Z,14.16
2019-05-20T04:20:12.220Z,14.11
2019-05-20T04:22:39.334Z,14.21
2019-05-20T04:25:06.173Z,14.27
2019-05-20T04:27:32.937Z,14.24
2019-05-20T04:29:59.717Z,14.19
2019-05-20T04:32:26.506Z,14.15
2019-05-20T04:34:53.234Z,14.17
2019-05-20T04:37:19.966Z,14.21
2019-05-20T04:39:46.669Z,14.28
2019-05-20T04:42:13.718Z,14.48
2019-05-20T04:44:40.460Z,14.48
2019-05-20T04:47:07.561Z,14.40
2019-05-20T04:49:34.493Z,14.46
2019-05-20T04:52:01.586Z,14.48
2019-05-20T04:54:28.312Z,14.51
2019-05-20T04:56:55.529Z,14.54
2019-05-20T04:59:22.310Z,14.64
2019-05-20T05:01:49.118Z,14.64
2019-05-20T05:04:16.425Z,14.67
2019-05-20T05:06:43.175Z,14.75
2019-05-20T05:09:15.613Z,14.77
2019-05-20T05:11:41.155Z,14.87
2019-05-20T05:14:08.208Z,14.99
2019-05-20T05:16:36.462Z,15.11
2019-05-20T05:19:03.516Z,15.19
2019-05-20T05:21:30.578Z,15.05
2019-05-20T05:23:59.550Z,15.05
2019-05-20T05:26:26.932Z,15.19
2019-05-20T05:28:56.729Z,15.28
2019-05-20T05:31:26.246Z,15.30
2019-05-20T05:33:55.323Z,15.32
2019-05-20T05:36:22.081Z,15.26
2019-05-20T05:38:50.163Z,15.37
2019-05-20T05:41:17.295Z,15.44
2019-05-20T05:43:52.913Z,15.53
2019-05-20T05:46:19.816Z,15.56
2019-05-20T05:48:46.638Z,15.59
2019-05-20T05:51:13.412Z,15.63
2019-05-20T05:53:40.857Z,15.70
2019-05-20T05:56:07.979Z,15.75
2019-05-20T05:58:35.538Z,15.74
2019-05-20T06:01:02.384Z,15.84
2019-05-20T06:03:29.271Z,15.92
2019-05-20T06:06:10.685Z,15.80
2019-05-20T06:08:25.061Z,15.98
2019-05-20T06:10:51.840Z,16.02
2019-05-20T06:13:18.608Z,15.92
2019-05-20T06:15:45.468Z,15.96
2019-05-20T06:18:12.295Z,15.97
2019-05-20T06:20:40.904Z,15.97
2019-05-20T06:23:08.083Z,15.84
2019-05-20T06:25:34.801Z,15.95
2019-05-20T06:28:01.632Z,16.11
2019-05-20T06:30:40.300Z,16.10
2019-05-20T06:33:07.387Z,16.06
2019-05-20T06:35:36.858Z,16.08
2019-05-20T06:38:08.618Z,16.11
2019-05-20T06:40:36.524Z,16.09
2019-05-20T06:43:03.241Z,16.08
2019-05-20T06:45:31.136Z,16.07
2019-05-20T06:48:16.153Z,16.08
2019-05-20T06:50:43.816Z,16.20
2019-05-20T06:53:10.619Z,16.11
2019-05-20T06:55:40.543Z,16.20
2019-05-20T06:58:07.566Z,16.06
2019-05-20T07:00:40.323Z,15.99
2019-05-20T07:03:07.096Z,16.08
2019-05-20T07:05:33.903Z,16.29
2019-05-20T07:08:02.921Z,16.48
2019-05-20T07:10:30.205Z,16.60
2019-05-20T07:12:56.975Z,16.47
2019-05-20T07:15:23.973Z,16.39
2019-05-20T07:17:50.750Z,16.57
2019-05-20T07:20:17.878Z,16.74
2019-05-20T07:22:55.835Z,16.85
2019-05-20T07:25:15.481Z,16.86
2019-05-20T07:27:43.889Z,16.87
2019-05-20T07:30:15.048Z,17.02
2019-05-20T07:32:39.623Z,16.89
2019-05-20T07:35:06.461Z,16.77
2019-05-20T07:37:33.384Z,16.90
2019-05-20T07:40:01.877Z,16.82
2019-05-20T07:42:28.729Z,16.92
2019-05-20T07:44:55.512Z,17.05
2019-05-20T07:47:22.340Z,17.26
2019-05-20T07:49:49.279Z,17.50
2019-05-20T07:52:16.102Z,17.58
2019-05-20T07:54:43.090Z,17.65
2019-05-20T07:57:09.942Z,17.58
2019-05-20T07:59:39.402Z,17.62
2019-05-20T08:02:06.284Z,17.70
2019-05-20T08:04:33.445Z,17.73
2019-05-20T08:07:00.222Z,17.89
2019-05-20T08:09:27.080Z,18.10
2019-05-20T08:11:53.798Z,18.09
2019-05-20T08:14:21.169Z,17.92
2019-05-20T08:16:47.945Z,17.95
2019-05-20T08:19:14.677Z,17.93
2019-05-20T08:21:43.667Z,18.00
2019-05-20T08:24:10.415Z,17.68
2019-05-20T08:26:37.355Z,17.77
2019-05-20T08:29:05.594Z,17.98
2019-05-20T08:31:32.334Z,18.09
2019-05-20T08:33:59.156Z,18.02
2019-05-20T08:36:26.038Z,17.96
2019-05-20T08:38:52.788Z,18.02
2019-05-20T08:41:19.545Z,17.86
2019-05-20T08:43:46.755Z,17.94
2019-05-20T08:46:13.719Z,18.08
2019-05-20T08:48:40.490Z,18.00
2019-05-20T08:51:07.456Z,18.13
2019-05-20T08:53:34.153Z,18.09
2019-05-20T08:56:00.931Z,18.20
2019-05-20T08:58:27.962Z,18.44
2019-05-20T09:00:57.497Z,18.54
2019-05-20T09:03:24.374Z,18.30
2019-05-20T09:05:51.180Z,18.47
2019-05-20T09:08:18.147Z,18.42
2019-05-20T09:10:44.904Z,18.62
2019-05-20T09:13:11.639Z,18.43
2019-05-20T09:15:38.394Z,18.19
2019-05-20T09:18:05.182Z,18.07
2019-05-20T09:20:32.114Z,17.98
2019-05-20T09:23:02.534Z,17.90
2019-05-20T09:25:31.630Z,18.01
2019-05-20T09:27:59.237Z,18.05
2019-05-20T09:30:26.179Z,18.25
2019-05-20T09:32:52.946Z,18.41
2019-05-20T09:35:19.811Z,18.56
2019-05-20T09:37:46.628Z,18.29
2019-05-20T09:40:21.832Z,18.21
2019-05-20T09:42:48.661Z,18.41
2019-05-20T09:45:15.445Z,18.58
2019-05-20T09:47:42.744Z,18.56
2019-05-20T09:50:09.618Z,18.72
2019-05-20T09:52:36.395Z,18.71
2019-05-20T09:55:04.914Z,18.80
2019-05-20T09:57:31.717Z,18.94
2019-05-20T09:59:58.990Z,19.08
2019-05-20T10:02:36.116Z,19.36
2019-05-20T10:04:54.421Z,19.51
2019-05-20T10:07:21.858Z,19.40
2019-05-20T10:09:48.913Z,19.32
2019-05-20T10:12:15.976Z,19.32
2019-05-20T10:14:42.825Z,19.31
2019-05-20T10:17:09.906Z,19.52
2019-05-20T10:19:36.745Z,19.53
2019-05-20T10:22:03.545Z,19.72
2019-05-20T10:24:30.259Z,19.85
2019-05-20T10:26:57.170Z,19.75
2019-05-20T10:29:26.962Z,19.43
2019-05-20T10:31:54.390Z,19.48
2019-05-20T10:34:21.478Z,19.47
2019-05-20T10:36:48.182Z,19.47
2019-05-20T10:39:14.908Z,19.34
2019-05-20T10:41:41.826Z,19.58
2019-05-20T10:44:08.627Z,19.75
2019-05-20T10:46:35.770Z,19.86
2019-05-20T10:49:02.946Z,19.57
2019-05-20T10:51:29.898Z,19.55
2019-05-20T10:53:59.483Z,19.73
2019-05-20T10:56:26.210Z,20.16
2019-05-20T10:58:53.052Z,20.03
2019-05-20T11:01:19.794Z,19.91
2019-05-20T11:03:47.105Z,20.17
2019-05-20T11:06:13.894Z,19.99
2019-05-20T11:08:40.709Z,20.06
2019-05-20T11:11:13.849Z,20.10
2019-05-20T11:13:40.550Z,20.16
2019-05-20T11:16:21.427Z,20.19
2019-05-20T11:18:42.283Z,19.97
2019-05-20T11:21:09.011Z,19.93
2019-05-20T11:23:35.876Z,20.34
2019-05-20T11:26:02.614Z,20.48
2019-05-20T11:28:29.712Z,20.70
2019-05-20T11:30:56.420Z,20.58
2019-05-20T11:33:26.990Z,20.72
2019-05-20T11:35:57.459Z,20.36
2019-05-20T11:38:24.268Z,20.40
2019-05-20T11:40:51.220Z,20.41
2019-05-20T11:43:17.986Z,20.44
2019-05-20T11:45:44.703Z,20.14
2019-05-20T11:48:11.606Z,20.06
2019-05-20T11:50:38.462Z,20.23
2019-05-20T11:53:05.205Z,20.30
2019-05-20T11:55:32.018Z,20.30
2019-05-20T11:58:15.871Z,20.06
2019-05-20T12:00:35.768Z,20.32
2019-05-20T12:03:02.881Z,20.81
2019-05-20T12:05:31.687Z,20.90
2019-05-20T12:07:58.523Z,21.18
2019-05-20T12:10:25.571Z,20.86
2019-05-20T12:12:52.415Z,20.88
2019-05-20T12:15:19.108Z,21.36
2019-05-20T12:17:45.961Z,21.09
2019-05-20T12:20:15.853Z,20.98
2019-05-20T12:22:42.684Z,21.24
2019-05-20T12:25:09.429Z,21.36
2019-05-20T12:27:43.368Z,21.22
2019-05-20T12:30:10.987Z,21.43
2019-05-20T12:32:37.705Z,21.65
2019-05-20T12:35:05.524Z,22.07
2019-05-20T12:37:32.244Z,21.65
2019-05-20T12:40:07.053Z,21.68
2019-05-20T12:42:31.321Z,22.00
2019-05-20T12:44:58.048Z,21.77
2019-05-20T12:47:24.806Z,21.71
2019-05-20T12:49:52.068Z,21.54
2019-05-20T12:52:19.295Z,21.40
2019-05-20T12:54:46.026Z,21.50
2019-05-20T12:57:12.745Z,21.81
2019-05-20T12:59:39.476Z,21.60
2019-05-20T13:02:06.648Z,21.68
2019-05-20T13:04:37.222Z,21.63
2019-05-20T13:07:04.234Z,21.99
2019-05-20T13:09:31.011Z,22.30
2019-05-20T13:11:58.706Z,22.18
2019-05-20T13:14:25.445Z,22.34
2019-05-20T13:16:52.369Z,21.94
2019-05-20T13:19:19.152Z,21.68
2019-05-20T13:21:45.896Z,21.76
2019-05-20T13:24:12.624Z,21.51
2019-05-20T13:26:39.868Z,21.30
2019-05-20T13:29:06.624Z,21.35
2019-05-20T13:31:40.046Z,21.34
2019-05-20T13:34:06.834Z,21.05
2019-05-20T13:36:33.592Z,21.08
2019-05-20T13:39:00.553Z,20.87
2019-05-20T13:41:27.857Z,20.82
2019-05-20T13:43:54.582Z,20.83
2019-05-20T13:46:21.473Z,20.80
2019-05-20T13:48:48.571Z,20.82
2019-05-20T13:51:16.358Z,20.80
2019-05-20T13:53:44.700Z,20.99
2019-05-20T13:56:11.551Z,21.01
2019-05-20T13:58:39.952Z,21.15
2019-05-20T14:01:08.510Z,21.46
2019-05-20T14:03:35.276Z,22.21
2019-05-20T14:06:02.065Z,23.06
2019-05-20T14:08:29.300Z,22.66
2019-05-20T14:11:04.210Z,22.62
2019-05-20T14:13:25.350Z,22.58
2019-05-20T14:15:52.184Z,22.82
2019-05-20T14:18:18.971Z,23.08
2019-05-20T14:20:45.677Z,23.10
2019-05-20T14:23:12.556Z,22.98
2019-05-20T14:25:39.348Z,22.87
2019-05-20T14:28:06.096Z,22.66
2019-05-20T14:30:34.254Z,22.39
2019-05-20T14:33:01.142Z,21.86
2019-05-20T14:35:27.985Z,21.94
2019-05-20T14:37:54.744Z,21.68
2019-05-20T14:40:21.566Z,21.56
2019-05-20T14:42:48.346Z,21.82
2019-05-20T14:45:15.425Z,21.73
2019-05-20T14:47:42.179Z,21.02
2019-05-20T14:50:09.036Z,20.70
2019-05-20T14:52:36.047Z,20.64
2019-05-20T14:55:03.293Z,20.54
2019-05-20T14:57:30.259Z,20.40
2019-05-20T14:59:56.986Z,20.35
2019-05-20T15:02:30.767Z,20.29
2019-05-20T15:04:55.703Z,20.29
2019-05-20T15:07:29.794Z,20.81
2019-05-20T15:09:52.899Z,20.63
2019-05-20T15:12:19.895Z,20.53
2019-05-20T15:14:46.653Z,20.54
2019-05-20T15:17:13.383Z,20.52
2019-05-20T15:19:40.349Z,20.03
2019-05-20T15:22:08.002Z,19.89
2019-05-20T15:24:34.797Z,19.98
2019-05-20T15:27:02.309Z,20.15
2019-05-20T15:29:29.343Z,19.91
2019-05-20T15:32:00.590Z,19.50
2019-05-20T15:34:29.223Z,19.59
2019-05-20T15:36:56.012Z,19.76
2019-05-20T15:39:22.760Z,19.64
2019-05-20T15:41:49.446Z,19.85
2019-05-20T15:44:16.866Z,19.92
2019-05-20T15:46:44.088Z,19.45
2019-05-20T15:49:10.909Z,19.65
2019-05-20T15:51:37.681Z,19.66
2019-05-20T15:54:04.556Z,19.35
2019-05-20T15:56:31.277Z,19.34
2019-05-20T15:58:58.016Z,19.25
2019-05-20T16:01:27.471Z,19.18
2019-05-20T16:03:54.348Z,19.20
2019-05-20T16:06:21.509Z,19.48
2019-05-20T16:08:48.752Z,19.34
2019-05-20T16:11:15.613Z,19.05
2019-05-20T16:13:42.375Z,18.95
2019-05-20T16:16:12.813Z,18.91
2019-05-20T16:18:38.053Z,19.10
2019-05-20T16:21:04.788Z,19.11
2019-05-20T16:23:32.105Z,19.04
2019-05-20T16:25:59.120Z,18.97
2019-05-20T16:28:25.984Z,18.97
2019-05-20T16:30:56.509Z,18.95
2019-05-20T16:33:25.582Z,18.86
2019-05-20T16:35:52.314Z,18.82
2019-05-20T16:38:19.075Z,18.70
2019-05-20T16:40:45.805Z,18.73
2019-05-20T16:43:12.530Z,18.62
2019-05-20T16:45:39.641Z,18.40
2019-05-20T16:48:06.687Z,18.49
2019-05-20T16:50:33.474Z,18.29
2019-05-20T16:53:00.176Z,18.24
2019-05-20T16:55:26.896Z,18.24
2019-05-20T16:57:53.701Z,18.23
2019-05-20T17:00:31.541Z,18.41
2019-05-20T17:02:49.052Z,18.40
2019-05-20T17:05:15.849Z,18.48
2019-05-20T17:07:42.625Z,18.41
2019-05-20T17:10:09.478Z,18.37
2019-05-20T17:12:36.220Z,18.20
2019-05-20T17:15:03.038Z,18.07
2019-05-20T17:17:31.987Z,17.99
2019-05-20T17:19:58.729Z,18.24
2019-05-20T17:22:25.454Z,18.12
2019-05-20T17:24:52.212Z,18.21
2019-05-20T17:27:18.959Z,18.31
2019-05-20T17:29:45.676Z,18.44
2019-05-20T17:32:12.470Z,18.52
2019-05-20T17:34:39.837Z,18.54
2019-05-20T17:37:06.593Z,18.37
2019-05-20T17:39:33.414Z,18.34
2019-05-20T17:42:00.631Z,18.20
2019-05-20T17:44:27.619Z,18.18
2019-05-20T17:46:54.362Z,18.18
2019-05-20T17:49:21.451Z,18.17
2019-05-20T17:51:49.385Z,18.30
2019-05-20T17:54:16.435Z,18.39
2019-05-20T17:56:43.272Z,18.29
2019-05-20T17:59:10.058Z,18.33
2019-05-20T18:01:36.867Z,18.22
2019-05-20T18:04:03.945Z,18.22
2019-05-20T18:06:30.634Z,18.18
2019-05-20T18:08:59.670Z,18.16
2019-05-20T18:11:26.359Z,18.00
2019-05-20T18:13:56.336Z,18.03
2019-05-20T18:16:23.597Z,18.21
2019-05-20T18:18:50.352Z,18.18
2019-05-20T18:21:17.232Z,18.19
2019-05-20T18:23:44.016Z,18.19
2019-05-20T18:26:11.117Z,18.19
2019-05-20T18:28:37.929Z,18.10
2019-05-20T18:31:04.889Z,18.06
2019-05-20T18:33:31.988Z,18.08
2019-05-20T18:35:58.756Z,18.00
2019-05-20T18:38:25.894Z,16.82
2019-05-20T18:40:53.783Z,17.77
2019-05-20T18:43:20.820Z,17.98
2019-05-20T18:45:47.545Z,17.81
2019-05-20T18:48:14.388Z,17.69
2019-05-20T18:50:41.069Z,17.71
2019-05-20T18:53:07.817Z,17.64
2019-05-20T18:55:35.078Z,17.56
2019-05-20T18:58:01.912Z,17.50
2019-05-20T19:00:29.093Z,17.48
2019-05-20T19:02:55.832Z,17.53
2019-05-20T19:05:22.670Z,17.48
2019-05-20T19:07:52.369Z,17.52
2019-05-20T19:10:19.537Z,17.53
2019-05-20T19:12:48.359Z,16.39
2019-05-20T19:15:15.198Z,17.42
2019-05-20T19:17:42.010Z,17.36
2019-05-20T19:20:12.360Z,17.33
2019-05-20T19:22:39.070Z,17.28
2019-05-20T19:25:06.901Z,17.31
2019-05-20T19:27:34.022Z,17.24
2019-05-20T19:30:00.788Z,17.24
2019-05-20T19:32:27.863Z,17.20
2019-05-20T19:34:54.592Z,17.13
2019-05-20T19:37:21.724Z,17.07
2019-05-20T19:39:48.456Z,17.04
2019-05-20T19:42:15.242Z,16.88
2019-05-20T19:44:41.960Z,16.93
2019-05-20T19:47:08.856Z,16.95
2019-05-20T19:49:37.010Z,17.03
2019-05-20T19:52:03.765Z,16.99
2019-05-20T19:54:30.523Z,16.97
2019-05-20T19:56:58.553Z,17.02
2019-05-20T19:59:25.719Z,17.03
2019-05-20T20:01:52.573Z,17.02
2019-05-20T20:04:19.755Z,16.96
2019-05-20T20:06:46.506Z,16.98
2019-05-20T20:09:13.562Z,17.09
2019-05-20T20:11:42.244Z,17.28
2019-05-20T20:14:08.970Z,17.20
2019-05-20T20:16:36.063Z,17.13
2019-05-20T20:19:02.802Z,17.12
2019-05-20T20:21:29.536Z,17.08
2019-05-20T20:23:56.240Z,17.03
2019-05-20T20:26:25.848Z,17.04
2019-05-20T20:28:52.677Z,17.15
2019-05-20T20:31:19.798Z,17.09
2019-05-20T20:33:46.626Z,17.10
2019-05-20T20:36:13.340Z,17.05
2019-05-20T20:38:40.081Z,17.15
2019-05-20T20:41:07.130Z,17.20
2019-05-20T20:43:33.862Z,17.31
2019-05-20T20:46:03.751Z,17.42
2019-05-20T20:48:30.481Z,17.38
2019-05-20T20:50:57.260Z,17.34
2019-05-20T20:53:24.117Z,17.33
2019-05-20T20:55:51.512Z,17.32
2019-05-20T20:58:18.230Z,17.23
2019-05-20T21:00:45.186Z,17.21
2019-05-20T21:03:11.946Z,17.16
2019-05-20T21:05:38.700Z,17.28
2019-05-20T21:08:05.794Z,17.24
2019-05-20T21:10:32.617Z,17.13
2019-05-20T21:13:04.402Z,16.96
2019-05-20T21:15:33.906Z,17.03
2019-05-20T21:18:01.168Z,17.00
2019-05-20T21:20:27.999Z,16.92
2019-05-20T21:22:54.755Z,16.96
2019-05-20T21:25:21.585Z,16.90
2019-05-20T21:27:48.847Z,16.89
2019-05-20T21:30:15.614Z,16.83
2019-05-20T21:32:42.374Z,16.86
2019-05-20T21:35:09.155Z,16.86
2019-05-20T21:37:41.909Z,16.93
2019-05-20T21:40:09.160Z,16.94
2019-05-20T21:42:35.944Z,16.85
2019-05-20T21:45:03.538Z,16.84
2019-05-20T21:47:30.654Z,16.87
2019-05-20T21:49:57.918Z,16.90
2019-05-20T21:52:25.104Z,16.88
2019-05-20T21:54:51.950Z,16.96
2019-05-20T21:57:18.687Z,16.97
2019-05-20T21:59:45.593Z,16.97
2019-05-20T22:02:12.551Z,16.81
2019-05-20T22:04:39.475Z,16.72
2019-05-20T22:07:06.442Z,16.68
2019-05-20T22:09:33.311Z,16.73
2019-05-20T22:12:00.161Z,16.75
2019-05-20T22:14:27.456Z,16.50
2019-05-20T22:16:54.325Z,16.53
2019-05-20T22:19:21.106Z,16.58
2019-05-20T22:21:54.543Z,16.73
2019-05-20T22:24:21.312Z,16.70
2019-05-20T22:26:49.564Z,16.74
2019-05-20T22:29:16.320Z,16.74
2019-05-20T22:32:19.668Z,16.76
2019-05-20T22:34:53.639Z,16.75
2019-05-20T22:37:15.133Z,16.80
2019-05-20T22:39:41.896Z,16.72
2019-05-20T22:42:08.643Z,16.53
2019-05-20T22:44:35.759Z,16.51
2019-05-20T22:47:04.941Z,16.50
2019-05-20T22:49:32.005Z,16.47
2019-05-20T22:51:58.728Z,16.51
2019-05-20T22:54:25.475Z,16.49
2019-05-20T22:56:52.638Z,16.48
2019-05-20T22:59:19.389Z,16.39
2019-05-20T23:01:46.100Z,16.39
2019-05-20T23:04:13.744Z,16.31
2019-05-20T23:06:40.486Z,16.31
2019-05-20T23:09:09.517Z,16.32
2019-05-20T23:11:36.645Z,16.33
2019-05-20T23:14:03.929Z,16.33
2019-05-20T23:16:30.894Z,16.35
2019-05-20T23:18:57.717Z,16.48
2019-05-20T23:21:24.399Z,15.27
2019-05-20T23:23:52.714Z,16.38
2019-05-20T23:26:19.566Z,16.36
2019-05-20T23:28:46.315Z,16.39
2019-05-20T23:31:13.066Z,16.26
2019-05-20T23:33:39.834Z,16.28
2019-05-20T23:36:06.604Z,16.27
2019-05-20T23:38:33.348Z,16.28
2019-05-20T23:41:00.052Z,16.27
2019-05-20T23:43:26.897Z,16.23
2019-05-20T23:45:53.608Z,16.24
2019-05-20T23:48:20.386Z,16.25
2019-05-20T23:50:47.491Z,16.14
2019-05-20T23:53:14.281Z,16.19
2019-05-20T23:55:43.750Z,16.27
2019-05-20T23:58:10.682Z,16.30
